Time;durP1;ratioP1;P1;durP2;ratioP2;P2;SDS_P1;SDS_P2;PMS_P1;PMS_P2;Temp;Humidity;BMP_temperature;BMP_pressure;BME280_temperature;BME280_humidity;BME280_pressure;Samples;Min_cycle;Max_cycle;Signal;HPM_P1;HPM_P2
2022/03/24 00:02:08;;;;;;;48.67;26.33;;;6.90;99.90;;;;;;5046757;28;20214;-44
2022/03/24 00:04:35;;;;;;;43.47;26.27;;;6.90;99.90;;;;;;5063070;28;20221;-43
2022/03/24 00:07:03;;;;;;;48.83;25.40;;;6.90;99.90;;;;;;5058938;28;20278;-45
2022/03/24 00:09:30;;;;;;;42.80;27.03;;;7.00;99.90;;;;;;5063437;28;20205;-44
2022/03/24 00:11:57;;;;;;;45.87;26.77;;;7.00;99.90;;;;;;5059176;28;20840;-48
2022/03/24 00:14:26;;;;;;;43.17;25.37;;;7.00;99.90;;;;;;5063041;28;20214;-47
2022/03/24 00:16:53;;;;;;;47.53;25.90;;;7.00;99.90;;;;;;5048368;28;20277;-50
2022/03/24 00:19:22;;;;;;;42.23;24.93;;;7.00;99.90;;;;;;5061445;28;20205;-46
2022/03/24 00:21:49;;;;;;;44.00;25.40;;;6.90;99.90;;;;;;5060975;28;20602;-46
2022/03/24 00:24:16;;;;;;;44.47;25.33;;;6.90;99.90;;;;;;5061753;28;20210;-48
2022/03/24 00:26:43;;;;;;;40.50;25.00;;;6.80;99.90;;;;;;5061234;28;20219;-46
2022/03/24 00:29:10;;;;;;;43.30;24.97;;;6.80;99.90;;;;;;5059767;28;20201;-46
2022/03/24 00:31:38;;;;;;;41.27;25.20;;;6.80;99.90;;;;;;5063056;28;20198;-43
2022/03/24 00:34:06;;;;;;;44.20;25.13;;;6.90;99.90;;;;;;5045482;28;20230;-45
2022/03/24 00:36:33;;;;;;;42.73;25.00;;;6.80;99.90;;;;;;5061717;28;20201;-47
2022/03/24 00:39:00;;;;;;;47.10;26.43;;;6.70;99.90;;;;;;5059066;28;20218;-46
2022/03/24 00:41:28;;;;;;;43.47;25.67;;;6.60;99.90;;;;;;5061790;28;20230;-46
2022/03/24 00:43:56;;;;;;;42.97;26.27;;;6.50;99.90;;;;;;5057382;28;20195;-49
2022/03/24 00:46:24;;;;;;;39.53;24.40;;;6.50;99.90;;;;;;5060898;28;20199;-46
2022/03/24 00:48:53;;;;;;;43.07;25.47;;;6.50;99.90;;;;;;5043941;28;20246;-47
2022/03/24 00:51:20;;;;;;;40.37;24.80;;;6.40;99.90;;;;;;5061410;28;20229;-47
2022/03/24 00:53:47;;;;;;;43.10;25.13;;;6.40;99.90;;;;;;5060743;28;20207;-50
2022/03/24 00:56:14;;;;;;;40.80;24.27;;;;;;;;;;5060604;28;20229;-47
2022/03/24 00:58:43;;;;;;;40.80;25.57;;;6.30;99.90;;;;;;5060741;28;20632;-46
2022/03/24 01:01:12;;;;;;;40.50;24.97;;;6.30;99.90;;;;;;5060050;28;20195;-46
2022/03/24 01:03:39;;;;;;;38.67;23.83;;;6.30;99.90;;;;;;5060901;28;20564;-47
2022/03/24 01:06:09;;;;;;;40.53;24.30;;;6.30;99.90;;;;;;5049330;28;20230;-45
2022/03/24 01:08:37;;;;;;;50.30;25.77;;;6.30;99.90;;;;;;5063045;28;20248;-46
2022/03/24 01:11:05;;;;;;;44.90;25.07;;;6.30;99.90;;;;;;5060743;28;20187;-45
2022/03/24 01:13:34;;;;;;;40.43;24.23;;;6.20;99.90;;;;;;5065243;28;20226;-45
2022/03/24 01:16:01;;;;;;;42.73;24.93;;;6.20;99.90;;;;;;5057291;28;20219;-46
2022/03/24 01:18:29;;;;;;;40.97;25.23;;;6.10;99.90;;;;;;5062699;28;20199;-46
2022/03/24 01:20:56;;;;;;;44.27;24.40;;;6.20;99.90;;;;;;5043327;28;20231;-48
2022/03/24 01:23:26;;;;;;;39.30;23.87;;;5.90;99.90;;;;;;5061343;28;20195;-48
2022/03/24 01:25:54;;;;;;;43.93;26.20;;;5.90;99.90;;;;;;5058886;28;20226;-47
2022/03/24 01:28:21;;;;;;;40.50;25.00;;;5.90;99.90;;;;;;5062487;28;20725;-45
2022/03/24 01:30:48;;;;;;;40.13;24.57;;;5.90;99.90;;;;;;5058227;28;20187;-45
2022/03/24 01:33:15;;;;;;;42.17;25.43;;;5.80;99.90;;;;;;5061236;28;20301;-45
2022/03/24 01:35:42;;;;;;;45.73;26.63;;;5.80;99.90;;;;;;5044940;28;20234;-46
2022/03/24 01:38:11;;;;;;;43.30;26.40;;;5.80;99.90;;;;;;5058421;28;20274;-44
2022/03/24 01:40:39;;;;;;;42.00;26.23;;;5.70;99.90;;;;;;5062283;28;20191;-47
2022/03/24 01:43:08;;;;;;;48.93;27.03;;;5.60;99.90;;;;;;5056760;28;20191;-45
2022/03/24 01:45:35;;;;;;;49.13;26.07;;;5.60;99.90;;;;;;5062115;28;20218;-47
2022/03/24 01:48:01;;;;;;;49.20;25.80;;;5.60;99.90;;;;;;5061222;28;20240;-45
2022/03/24 01:50:29;;;;;;;48.37;26.73;;;5.60;99.90;;;;;;5050804;28;20297;-48
2022/03/24 01:52:56;;;;;;;59.97;27.73;;;5.50;99.90;;;;;;5061717;28;20194;-48
2022/03/24 01:55:23;;;;;;;60.63;27.37;;;5.50;99.90;;;;;;5064770;28;20684;-47
2022/03/24 01:57:53;;;;;;;53.77;27.20;;;5.50;99.90;;;;;;5062531;28;20221;-48
2022/03/24 02:00:20;;;;;;;46.07;25.13;;;5.40;99.90;;;;;;5063406;28;20306;-45
2022/03/24 02:02:48;;;;;;;46.10;26.43;;;5.30;99.90;;;;;;5063987;28;20202;-46
2022/03/24 02:05:15;;;;;;;41.70;25.73;;;5.40;99.90;;;;;;5064283;28;20210;-46
2022/03/24 02:07:43;;;;;;;57.07;26.23;;;5.40;99.90;;;;;;5047798;28;20199;-48
2022/03/24 02:10:11;;;;;;;44.63;26.67;;;5.40;99.90;;;;;;5061798;28;20222;-46
2022/03/24 02:12:41;;;;;;;46.83;24.90;;;5.30;99.90;;;;;;5063574;28;20281;-45
2022/03/24 02:15:11;;;;;;;42.43;26.10;;;5.20;99.90;;;;;;5057926;28;20226;-45
2022/03/24 02:17:39;;;;;;;47.63;25.33;;;5.20;99.90;;;;;;5059448;28;20211;-47
2022/03/24 02:20:08;;;;;;;42.93;27.30;;;5.20;99.90;;;;;;5058402;28;20226;-46
2022/03/24 02:22:38;;;;;;;48.83;25.67;;;5.30;99.90;;;;;;5049181;28;20671;-48
2022/03/24 02:25:09;;;;;;;42.20;24.77;;;5.10;99.90;;;;;;5061290;28;20213;-45
2022/03/24 02:27:36;;;;;;;44.10;27.03;;;5.10;99.90;;;;;;5064731;28;20205;-46
2022/03/24 02:30:04;;;;;;;42.63;25.87;;;5.00;99.90;;;;;;5055382;28;20225;-47
2022/03/24 02:32:31;;;;;;;41.00;24.43;;;5.00;99.90;;;;;;5065082;28;20202;-44
2022/03/24 02:34:58;;;;;;;43.83;25.40;;;5.00;99.90;;;;;;5054767;28;20222;-49
2022/03/24 02:37:28;;;;;;;43.43;25.03;;;5.00;99.90;;;;;;5046513;28;20290;-48
2022/03/24 02:39:58;;;;;;;38.63;24.20;;;4.90;99.90;;;;;;5058238;28;20198;-44
2022/03/24 02:42:27;;;;;;;44.67;25.60;;;5.00;99.90;;;;;;5064532;28;20684;-45
2022/03/24 02:44:56;;;;;;;47.67;25.93;;;4.90;99.90;;;;;;5061133;28;20619;-42
2022/03/24 02:47:23;;;;;;;37.63;23.50;;;4.90;99.90;;;;;;5063870;28;20914;-44
2022/03/24 02:49:52;;;;;;;38.63;23.47;;;4.90;99.90;;;;;;5062261;28;20199;-44
2022/03/24 02:52:19;;;;;;;42.80;24.37;;;4.90;99.90;;;;;;5049956;28;20679;-45
2022/03/24 02:54:46;;;;;;;40.43;24.13;;;4.90;99.90;;;;;;5062524;28;20214;-40
2022/03/24 02:57:14;;;;;;;41.30;24.60;;;4.90;99.90;;;;;;5061800;28;20293;-41
2022/03/24 02:59:41;;;;;;;44.63;25.23;;;4.80;99.90;;;;;;5063485;28;20187;-46
2022/03/24 03:02:12;;;;;;;43.97;24.80;;;4.80;99.90;;;;;;5061614;28;20202;-47
2022/03/24 03:04:40;;;;;;;46.67;25.27;;;4.70;99.90;;;;;;5063907;28;20222;-45
2022/03/24 03:07:07;;;;;;;45.63;25.30;;;4.70;99.90;;;;;;5045789;28;20202;-50
2022/03/24 03:09:36;;;;;;;47.10;26.13;;;4.60;99.90;;;;;;5059834;28;20534;-46
2022/03/24 03:12:04;;;;;;;44.43;23.87;;;4.60;99.90;;;;;;5061429;28;20191;-48
2022/03/24 03:14:33;;;;;;;43.03;24.50;;;4.60;99.90;;;;;;5064233;28;20215;-49
2022/03/24 03:17:00;;;;;;;43.13;26.03;;;4.60;99.90;;;;;;5059372;28;20934;-44
2022/03/24 03:19:28;;;;;;;43.43;25.03;;;4.60;99.90;;;;;;5064425;28;20602;-45
2022/03/24 03:21:55;;;;;;;41.30;23.97;;;4.60;99.90;;;;;;5048028;28;20248;-50
2022/03/24 03:24:23;;;;;;;36.90;23.03;;;4.60;99.90;;;;;;5059843;28;20710;-46
2022/03/24 03:26:52;;;;;;;42.93;24.83;;;4.50;99.90;;;;;;5057152;28;20305;-48
2022/03/24 03:29:22;;;;;;;44.77;26.77;;;4.50;99.90;;;;;;5063617;28;20226;-44
2022/03/24 03:31:53;;;;;;;43.83;25.57;;;4.50;99.90;;;;;;5061096;28;20210;-45
2022/03/24 03:34:24;;;;;;;50.27;26.00;;;4.40;99.90;;;;;;5063442;28;20283;-45
2022/03/24 03:36:52;;;;;;;43.23;25.47;;;4.40;99.90;;;;;;5060521;28;20271;-46
2022/03/24 03:39:18;;;;;;;44.70;26.57;;;4.30;99.90;;;;;;5049038;28;20670;-50
2022/03/24 03:41:45;;;;;;;43.63;24.90;;;4.30;99.90;;;;;;5061880;28;20586;-45
2022/03/24 03:44:12;;;;;;;42.40;26.43;;;4.30;99.90;;;;;;5061613;28;20426;-44
2022/03/24 03:46:39;;;;;;;42.77;25.80;;;4.20;99.90;;;;;;5062299;28;20198;-43
2022/03/24 03:49:08;;;;;;;44.33;26.27;;;4.20;99.90;;;;;;5060615;28;20218;-43
2022/03/24 03:51:37;;;;;;;44.20;25.93;;;4.20;99.90;;;;;;5064059;28;20285;-46
2022/03/24 03:54:05;;;;;;;43.40;25.03;;;4.20;99.90;;;;;;5046198;28;20289;-48
2022/03/24 03:56:32;;;;;;;46.90;27.00;;;4.20;99.90;;;;;;5062992;28;20307;-47
2022/03/24 03:58:59;;;;;;;46.23;26.07;;;4.20;99.90;;;;;;5059280;28;20203;-46
2022/03/24 04:01:26;;;;;;;48.50;26.70;;;4.10;99.90;;;;;;5063214;28;20206;-44
2022/03/24 04:03:53;;;;;;;46.97;25.93;;;4.10;99.90;;;;;;5059865;28;20588;-46
2022/03/24 04:06:21;;;;;;;42.33;25.63;;;4.00;99.90;;;;;;5062588;28;20201;-46
2022/03/24 04:08:48;;;;;;;45.13;25.63;;;4.00;99.90;;;;;;5050311;28;20213;-48
2022/03/24 04:11:15;;;;;;;43.97;25.30;;;4.00;99.90;;;;;;5061299;28;20193;-44
2022/03/24 04:13:43;;;;;;;47.47;26.47;;;4.00;99.90;;;;;;5061465;28;20198;-47
2022/03/24 04:16:12;;;;;;;42.87;26.03;;;4.00;99.90;;;;;;5059889;28;20242;-44
2022/03/24 04:18:40;;;;;;;47.30;25.40;;;4.00;99.90;;;;;;5063070;28;20201;-47
2022/03/24 04:21:07;;;;;;;42.83;25.57;;;4.00;99.90;;;;;;5060206;28;20940;-49
2022/03/24 04:23:36;;;;;;;43.10;25.10;;;4.00;99.90;;;;;;5063113;28;20202;-48
2022/03/24 04:26:04;;;;;;;43.10;25.00;;;3.90;99.90;;;;;;5040463;28;20248;-43
2022/03/24 04:28:32;;;;;;;42.33;25.03;;;3.90;99.90;;;;;;5063200;28;20197;-44
2022/03/24 04:30:59;;;;;;;41.20;24.87;;;3.90;99.90;;;;;;5058869;28;20202;-47
2022/03/24 04:33:27;;;;;;;39.23;24.87;;;3.90;99.90;;;;;;5062894;28;20203;-47
2022/03/24 04:35:54;;;;;;;44.73;25.53;;;3.80;99.90;;;;;;5059015;28;20221;-50
2022/03/24 04:38:20;;;;;;;41.83;25.57;;;3.80;99.90;;;;;;5062895;28;20230;-49
2022/03/24 04:40:49;;;;;;;50.13;26.37;;;3.80;99.90;;;;;;5043181;28;20210;-47
2022/03/24 04:43:16;;;;;;;48.37;25.60;;;3.90;99.90;;;;;;5060280;28;20297;-47
2022/03/24 04:45:43;;;;;;;44.50;27.23;;;3.90;99.90;;;;;;5061346;28;20218;-42
2022/03/24 04:48:10;;;;;;;42.73;26.03;;;3.80;99.90;;;;;;5059590;28;20274;-43
2022/03/24 04:50:37;;;;;;;46.97;26.03;;;3.80;99.90;;;;;;5063011;28;20247;-43
2022/03/24 04:53:04;;;;;;;54.73;30.10;;;3.80;99.90;;;;;;5058984;28;20198;-45
2022/03/24 04:55:31;;;;;;;43.90;26.13;;;3.70;99.90;;;;;;5048783;28;20222;-46
2022/03/24 04:58:00;;;;;;;43.63;25.23;;;3.60;99.90;;;;;;5057922;28;20221;-42
2022/03/24 05:00:27;;;;;;;44.33;25.97;;;3.60;99.90;;;;;;5062702;28;20202;-43
2022/03/24 05:02:54;;;;;;;43.23;25.37;;;3.60;99.90;;;;;;5059096;28;20218;-45
2022/03/24 05:05:21;;;;;;;47.30;25.70;;;3.60;99.90;;;;;;5062574;28;20202;-44
2022/03/24 05:07:48;;;;;;;47.33;26.70;;;3.50;99.90;;;;;;5060011;28;20320;-46
2022/03/24 05:10:15;;;;;;;44.70;24.97;;;3.60;99.90;;;;;;5061271;28;20875;-44
2022/03/24 05:12:43;;;;;;;41.97;25.17;;;3.50;99.90;;;;;;5043803;28;20202;-46
2022/03/24 05:15:13;;;;;;;52.27;26.70;;;3.50;99.90;;;;;;5059906;28;20413;-44
2022/03/24 05:17:41;;;;;;;45.63;24.70;;;3.50;99.90;;;;;;5060916;28;20205;-47
2022/03/24 05:20:09;;;;;;;49.93;27.13;;;3.40;99.90;;;;;;5059610;28;20224;-45
2022/03/24 05:22:37;;;;;;;52.63;27.63;;;3.40;99.90;;;;;;5066097;28;20205;-43
2022/03/24 05:25:05;;;;;;;41.80;24.83;;;3.40;99.90;;;;;;5054577;28;20214;-45
2022/03/24 05:27:33;;;;;;;47.77;25.63;;;3.40;99.90;;;;;;5046838;28;20204;-46
2022/03/24 05:29:59;;;;;;;48.17;27.13;;;3.40;99.90;;;;;;5057083;28;20272;-48
2022/03/24 05:32:27;;;;;;;49.27;26.77;;;3.40;99.90;;;;;;5065833;28;20210;-45
2022/03/24 05:34:54;;;;;;;43.77;25.53;;;3.40;99.90;;;;;;5062472;28;20226;-50
2022/03/24 05:37:21;;;;;;;45.63;25.97;;;3.40;99.90;;;;;;5064918;28;20714;-46
2022/03/24 05:39:48;;;;;;;44.13;25.67;;;3.40;99.90;;;;;;5064107;28;20208;-48
2022/03/24 05:42:16;;;;;;;50.13;27.27;;;3.40;99.90;;;;;;5047886;28;21206;-44
2022/03/24 05:44:43;;;;;;;47.90;26.27;;;3.40;99.90;;;;;;5063368;28;20556;-44
2022/03/24 05:47:09;;;;;;;48.27;27.10;;;3.40;99.90;;;;;;5057331;28;20195;-44
2022/03/24 05:49:37;;;;;;;45.13;24.67;;;3.30;99.90;;;;;;5065566;28;20556;-44
2022/03/24 05:52:23;;;;;;;44.67;25.83;;;3.40;99.90;;;;;;5058471;28;20204;-43
2022/03/24 05:54:50;;;;;;;54.33;26.83;;;3.30;99.90;;;;;;5057135;28;20571;-45
2022/03/24 05:57:16;;;;;;;46.87;26.47;;;3.40;99.90;;;;;;5039512;28;21262;-43
2022/03/24 05:59:43;;;;;;;52.33;27.67;;;3.40;99.90;;;;;;5071181;28;20193;-43
2022/03/24 06:02:10;;;;;;;43.33;25.30;;;3.40;99.90;;;;;;5058209;28;20285;-40
2022/03/24 06:04:41;;;;;;;45.97;27.07;;;3.50;99.90;;;;;;5064138;28;20225;-43
2022/03/24 06:07:08;;;;;;;50.40;27.37;;;3.50;99.90;;;;;;5062225;28;20280;-42
2022/03/24 06:09:35;;;;;;;49.50;28.07;;;3.50;99.90;;;;;;5065242;28;20224;-41
2022/03/24 06:12:02;;;;;;;43.13;25.97;;;3.50;99.90;;;;;;5061374;28;20197;-42
2022/03/24 06:14:29;;;;;;;51.17;28.17;;;3.50;99.90;;;;;;5042798;28;20305;-47
2022/03/24 06:16:56;;;;;;;46.23;26.73;;;3.60;99.90;;;;;;5055308;28;20221;-48
2022/03/24 06:19:23;;;;;;;50.27;28.70;;;3.60;99.90;;;;;;5061812;28;20204;-48
2022/03/24 06:21:52;;;;;;;47.30;26.20;;;3.60;99.90;;;;;;5061649;28;20247;-48
2022/03/24 06:24:18;;;;;;;47.10;27.13;;;3.70;99.90;;;;;;5063790;28;20237;-46
2022/03/24 06:26:45;;;;;;;50.83;27.43;;;3.70;99.90;;;;;;5062210;28;20194;-48
2022/03/24 06:29:13;;;;;;;44.50;26.20;;;3.80;99.90;;;;;;5050569;28;20209;-51
2022/03/24 06:31:40;;;;;;;49.50;27.33;;;3.80;99.90;;;;;;5064188;28;20625;-48
2022/03/24 06:34:08;;;;;;;48.37;27.23;;;3.90;99.90;;;;;;5057073;28;20234;-51
2022/03/24 06:36:34;;;;;;;47.37;25.80;;;3.90;99.90;;;;;;5064156;28;20217;-47
2022/03/24 06:39:03;;;;;;;49.03;28.10;;;4.00;99.90;;;;;;5055282;28;20267;-45
2022/03/24 06:41:30;;;;;;;50.27;28.67;;;4.10;99.90;;;;;;5064230;28;20198;-49
2022/03/24 06:43:57;;;;;;;53.57;28.47;;;4.10;99.90;;;;;;5047957;28;21828;-51
2022/03/24 06:46:24;;;;;;;49.57;28.17;;;4.20;99.90;;;;;;5057781;28;20278;-46
2022/03/24 06:48:51;;;;;;;52.70;28.23;;;4.30;99.90;;;;;;5061356;28;20198;-48
2022/03/24 06:51:18;;;;;;;44.80;27.60;;;4.40;99.90;;;;;;5059075;28;20210;-47
2022/03/24 06:53:45;;;;;;;47.13;27.50;;;4.50;99.90;;;;;;5057058;28;20217;-46
2022/03/24 06:56:14;;;;;;;46.23;27.80;;;4.60;99.90;;;;;;5061932;28;20227;-45
2022/03/24 06:58:43;;;;;;;52.13;29.37;;;4.70;99.90;;;;;;5054156;28;20201;-46
2022/03/24 07:01:10;;;;;;;53.30;29.40;;;4.80;99.90;;;;;;5058735;28;20285;-48
2022/03/24 07:03:37;;;;;;;46.73;28.20;;;4.90;99.90;;;;;;5051535;28;20279;-51
2022/03/24 07:06:05;;;;;;;52.50;29.17;;;5.10;99.90;;;;;;5051667;28;20230;-43
2022/03/24 07:08:32;;;;;;;48.13;28.63;;;5.20;99.90;;;;;;5055369;28;20205;-49
2022/03/24 07:10:59;;;;;;;52.10;28.27;;;5.40;99.90;;;;;;5044999;28;20203;-45
2022/03/24 07:13:27;;;;;;;47.93;27.63;;;5.50;99.90;;;;;;5046044;28;20211;-44
2022/03/24 07:15:54;;;;;;;52.07;27.63;;;5.60;99.90;;;;;;5043337;28;20707;-43
2022/03/24 07:18:21;;;;;;;50.43;27.97;;;5.70;99.90;;;;;;5061477;28;20218;-45
2022/03/24 07:20:48;;;;;;;50.67;30.10;;;5.90;99.90;;;;;;5069264;28;20190;-43
2022/03/24 07:23:16;;;;;;;45.87;27.90;;;6.00;99.90;;;;;;5052389;28;20203;-45
2022/03/24 07:25:42;;;;;;;45.77;27.43;;;6.10;99.90;;;;;;5060803;28;20233;-46
2022/03/24 07:28:11;;;;;;;49.50;27.23;;;6.30;99.90;;;;;;5053079;28;20286;-46
2022/03/24 07:30:39;;;;;;;47.00;27.80;;;6.40;99.90;;;;;;5053611;28;20672;-43
2022/03/24 07:33:07;;;;;;;42.77;26.87;;;6.50;99.90;;;;;;5049874;28;20203;-43
2022/03/24 07:35:35;;;;;;;48.20;27.40;;;6.70;99.90;;;;;;5044875;28;20238;-43
2022/03/24 07:38:02;;;;;;;45.03;27.63;;;6.80;99.90;;;;;;5053646;28;20243;-46
2022/03/24 07:40:28;;;;;;;45.57;27.07;;;7.00;99.90;;;;;;5046035;28;20210;-44
2022/03/24 07:42:57;;;;;;;46.93;27.10;;;7.10;99.90;;;;;;5051730;28;20199;-43
2022/03/24 07:45:25;;;;;;;43.37;27.27;;;7.20;99.90;;;;;;5025141;28;20229;-46
2022/03/24 07:48:09;;;;;;;49.13;27.37;;;7.40;99.90;;;;;;5052082;28;20282;-44
2022/03/24 07:50:37;;;;;;;40.80;25.80;;;7.40;99.90;;;;;;5054775;28;20535;-44
2022/03/24 07:53:21;;;;;;;46.47;27.00;;;7.60;99.90;;;;;;5062101;28;20206;-44
2022/03/24 07:55:48;;;;;;;48.73;27.50;;;7.70;99.90;;;;;;5060957;28;20217;-45
2022/03/24 07:58:18;;;;;;;44.70;26.83;;;7.90;99.90;;;;;;5061363;28;20245;-46
2022/03/24 08:00:45;;;;;;;44.33;27.07;;;7.90;99.90;;;;;;5043482;28;20226;-46
2022/03/24 08:03:16;;;;;;;45.40;26.63;;;7.90;99.90;;;;;;5060968;28;20206;-44
2022/03/24 08:05:43;;;;;;;46.90;28.13;;;8.30;99.90;;;;;;5057660;28;20909;-49
2022/03/24 08:08:11;;;;;;;45.97;26.37;;;8.50;99.90;;;;;;5062380;28;20198;-43
2022/03/24 08:10:38;;;;;;;40.97;25.67;;;;;;;;;;5058720;28;20943;-44
2022/03/24 08:13:05;;;;;;;45.83;25.30;;;8.80;99.90;;;;;;5061558;28;20191;-44
2022/03/24 08:15:35;;;;;;;43.40;27.43;;;9.00;99.90;;;;;;5053199;28;20297;-45
2022/03/24 08:18:04;;;;;;;44.73;25.53;;;;;;;;;;5050025;28;20222;-43
2022/03/24 08:20:32;;;;;;;45.77;26.73;;;9.20;99.90;;;;;;5052285;28;20198;-43
2022/03/24 08:22:59;;;;;;;51.33;27.47;;;9.40;99.90;;;;;;5060609;28;20835;-47
2022/03/24 08:25:27;;;;;;;43.33;25.57;;;9.50;99.90;;;;;;5058774;28;20722;-44
2022/03/24 08:27:53;;;;;;;43.53;25.63;;;9.60;99.90;;;;;;5059234;28;20202;-46
2022/03/24 08:30:20;;;;;;;40.93;25.97;;;9.70;99.90;;;;;;5057966;28;20191;-45
2022/03/24 08:32:47;;;;;;;41.23;25.30;;;9.80;99.90;;;;;;5043215;28;21790;-46
2022/03/24 08:35:13;;;;;;;45.77;25.13;;;9.90;99.90;;;;;;5061632;28;20223;-46
2022/03/24 08:37:42;;;;;;;38.23;24.53;;;10.10;99.90;;;;;;5057282;28;20218;-44
2022/03/24 08:40:10;;;;;;;42.90;25.93;;;;;;;;;;5061780;28;20202;-45
2022/03/24 08:42:38;;;;;;;37.70;23.67;;;10.50;99.90;;;;;;5057894;28;20277;-43
2022/03/24 08:45:06;;;;;;;44.93;24.97;;;10.90;99.90;;;;;;5059642;28;20397;-45
2022/03/24 08:47:34;;;;;;;43.57;25.43;;;10.70;99.90;;;;;;5037074;28;20229;-43
2022/03/24 08:50:01;;;;;;;40.23;23.50;;;10.80;99.90;;;;;;5058824;28;20202;-44
2022/03/24 08:52:28;;;;;;;41.07;23.83;;;11.00;99.90;;;;;;5056688;28;20277;-44
2022/03/24 08:54:56;;;;;;;35.77;22.43;;;11.10;99.40;;;;;;5061345;28;20222;-47
2022/03/24 08:57:26;;;;;;;38.97;23.63;;;11.30;99.10;;;;;;5055692;28;20218;-43
2022/03/24 08:59:53;;;;;;;39.53;24.37;;;11.40;98.20;;;;;;5062136;28;20211;-43
2022/03/24 09:02:21;;;;;;;42.47;25.47;;;11.40;97.90;;;;;;5059251;28;20584;-44
2022/03/24 09:04:47;;;;;;;40.53;23.93;;;11.50;97.80;;;;;;5049711;28;20974;-43
2022/03/24 09:07:14;;;;;;;39.03;24.37;;;11.60;97.80;;;;;;5064833;28;20201;-45
2022/03/24 09:09:41;;;;;;;43.03;24.73;;;11.80;95.70;;;;;;5062752;28;20201;-43
2022/03/24 09:12:10;;;;;;;41.87;23.80;;;11.90;95.20;;;;;;5068191;28;20214;-41
2022/03/24 09:14:37;;;;;;;38.90;23.70;;;12.00;94.60;;;;;;5057287;28;20953;-44
2022/03/24 09:17:05;;;;;;;42.73;24.50;;;12.20;94.10;;;;;;5059346;28;20408;-43
2022/03/24 09:19:32;;;;;;;39.57;22.47;;;12.40;93.90;;;;;;5050007;28;20214;-44
2022/03/24 09:21:59;;;;;;;37.90;23.10;;;12.50;92.60;;;;;;5064280;28;20206;-42
2022/03/24 09:24:27;;;;;;;37.77;22.90;;;12.60;92.10;;;;;;5062335;28;20271;-42
2022/03/24 09:26:54;;;;;;;36.87;24.37;;;12.70;91.20;;;;;;5064282;28;20217;-42
2022/03/24 09:29:22;;;;;;;36.43;23.07;;;12.80;91.20;;;;;;5063583;28;20199;-48
2022/03/24 09:31:49;;;;;;;37.23;23.43;;;12.90;91.60;;;;;;5059090;28;20317;-42
2022/03/24 09:34:16;;;;;;;39.00;24.00;;;13.10;90.90;;;;;;5059226;28;20306;-47
2022/03/24 09:36:44;;;;;;;36.50;24.07;;;13.10;89.50;;;;;;5058755;28;20218;-43
2022/03/24 09:39:11;;;;;;;38.90;23.67;;;13.20;88.40;;;;;;5065616;28;20199;-45
2022/03/24 09:41:40;;;;;;;34.67;22.23;;;13.30;88.60;;;;;;5060636;28;20189;-45
2022/03/24 09:44:07;;;;;;;38.90;23.53;;;13.30;87.50;;;;;;5065153;28;20260;-43
2022/03/24 09:46:35;;;;;;;41.70;23.00;;;13.30;85.70;;;;;;5060012;28;20875;-42
2022/03/24 09:49:02;;;;;;;41.10;22.83;;;13.30;84.80;;;;;;5059883;28;20205;-45
2022/03/24 09:51:30;;;;;;;39.57;23.13;;;13.30;84.10;;;;;;5046514;28;20281;-46
2022/03/24 09:53:57;;;;;;;38.37;23.53;;;13.20;83.20;;;;;;5062871;28;20741;-45
2022/03/24 09:56:24;;;;;;;36.37;24.13;;;13.30;83.70;;;;;;5061797;28;20560;-46
2022/03/24 09:58:51;;;;;;;34.47;22.70;;;13.40;84.10;;;;;;5063769;28;20215;-43
2022/03/24 10:01:18;;;;;;;38.23;23.27;;;13.50;82.50;;;;;;5061988;28;20210;-42
2022/03/24 10:04:04;;;;;;;38.07;24.20;;;13.50;80.90;;;;;;5057530;28;20952;-44
2022/03/24 10:06:31;;;;;;;37.67;23.63;;;13.50;80.40;;;;;;5042289;28;20281;-44
2022/03/24 10:08:58;;;;;;;41.77;23.53;;;13.40;80.80;;;;;;5060875;28;20270;-44
2022/03/24 10:11:26;;;;;;;40.50;23.83;;;13.50;80.80;;;;;;5061680;28;20206;-44
2022/03/24 10:13:55;;;;;;;35.97;23.03;;;13.60;80.30;;;;;;5063079;28;20202;-43
2022/03/24 10:16:41;;;;;;;39.47;23.60;;;13.70;80.80;;;;;;5062483;28;20559;-43
2022/03/24 10:19:11;;;;;;;43.03;23.97;;;13.80;95.30;;;;;;5058935;28;20215;-46
2022/03/24 10:21:40;;;;;;;37.50;23.10;;;13.90;78.90;;;;;;5061251;28;20182;-42
2022/03/24 10:24:09;;;;;;;36.60;22.90;;;13.80;77.90;;;;;;5050070;28;20256;-46
2022/03/24 10:26:41;;;;;;;36.40;22.73;;;13.90;77.80;;;;;;5052989;28;20239;-43
2022/03/24 10:29:08;;;;;;;35.73;22.93;;;13.90;78.40;;;;;;5058672;28;20538;-42
2022/03/24 10:31:36;;;;;;;38.73;22.77;;;13.90;76.40;;;;;;5052928;28;21007;-42
2022/03/24 10:34:04;;;;;;;39.33;22.30;;;13.90;76.80;;;;;;5059540;28;20281;-42
2022/03/24 10:36:33;;;;;;;37.73;22.40;;;14.00;78.20;;;;;;5060126;28;20260;-44
2022/03/24 10:39:04;;;;;;;36.13;24.30;;;14.20;76.60;;;;;;5049283;28;20222;-45
2022/03/24 10:41:33;;;;;;;37.60;23.00;;;14.20;75.80;;;;;;5059609;28;20194;-43
2022/03/24 10:44:06;;;;;;;32.03;21.50;;;14.10;77.20;;;;;;5053424;28;20219;-45
2022/03/24 10:46:35;;;;;;;35.63;20.90;;;14.20;77.00;;;;;;5054385;28;20210;-48
2022/03/24 10:49:20;;;;;;;35.00;22.27;;;14.30;77.80;;;;;;5052353;28;20207;-42
2022/03/24 10:51:50;;;;;;;39.20;21.80;;;14.30;75.10;;;;;;5061719;28;20206;-44
2022/03/24 10:54:27;;;;;;;32.23;20.43;;;14.20;75.80;;;;;;5047368;28;20237;-44
2022/03/24 10:57:00;;;;;;;36.20;23.20;;;14.20;75.60;;;;;;5063146;28;20198;-44
2022/03/24 10:59:31;;;;;;;30.27;21.90;;;14.30;75.00;;;;;;5055036;28;20214;-42
2022/03/24 11:01:57;;;;;;;34.37;22.00;;;14.40;73.70;;;;;;5062673;28;21005;-42
2022/03/24 11:04:24;;;;;;;37.00;22.83;;;14.40;73.70;;;;;;5052629;28;20215;-42
2022/03/24 11:06:53;;;;;;;36.43;22.53;;;14.50;73.60;;;;;;5060305;28;20229;-42
2022/03/24 11:09:27;;;;;;;37.43;21.73;;;14.60;73.80;;;;;;5054493;28;20298;-43
2022/03/24 11:12:26;;;;;;;32.47;21.13;;;14.70;74.10;;;;;;5060748;28;20213;-43
2022/03/24 11:14:55;;;;;;;35.17;22.30;;;14.90;74.30;;;;;;5062900;28;20214;-42
2022/03/24 11:17:23;;;;;;;35.63;22.73;;;15.00;72.50;;;;;;5059440;28;20211;-46
2022/03/24 11:19:56;;;;;;;33.13;21.20;;;14.90;73.20;;;;;;5054924;28;20286;-42
2022/03/24 11:22:37;;;;;;;41.90;24.53;;;15.00;72.90;;;;;;5056239;28;20206;-46
2022/03/24 11:25:04;;;;;;;38.80;23.43;;;14.90;70.60;;;;;;5063321;28;20311;-43
2022/03/24 11:27:31;;;;;;;40.33;23.63;;;14.90;70.30;;;;;;5036395;28;20201;-47
2022/03/24 11:29:58;;;;;;;35.83;21.93;;;14.90;71.00;;;;;;5061401;28;20209;-42
2022/03/24 11:32:27;;;;;;;38.60;22.63;;;14.90;70.30;;;;;;5057816;28;20198;-43
2022/03/24 11:34:55;;;;;;;32.57;20.80;;;15.00;71.00;;;;;;5052438;28;20222;-43
2022/03/24 11:37:22;;;;;;;38.60;21.60;;;15.00;70.50;;;;;;5053435;28;20207;-42
2022/03/24 11:40:07;;;;;;;35.57;22.90;;;15.20;70.40;;;;;;5053081;28;20319;-43
2022/03/24 11:42:38;;;;;;;36.30;21.23;;;15.30;69.00;;;;;;5045436;28;20202;-43
2022/03/24 11:45:12;;;;;;;33.97;22.23;;;15.40;70.20;;;;;;5061637;28;20222;-46
2022/03/24 11:47:52;;;;;;;36.87;22.50;;;15.40;69.40;;;;;;5057230;28;20182;-45
2022/03/24 11:50:33;;;;;;;34.13;21.90;;;15.40;69.00;;;;;;5058681;28;20203;-45
2022/03/24 11:53:14;;;;;;;36.47;22.47;;;15.50;70.00;;;;;;5044152;28;20206;-45
2022/03/24 11:56:05;;;;;;;35.10;22.57;;;15.40;68.50;;;;;;5050630;28;20237;-47
2022/03/24 11:58:38;;;;;;;36.10;23.70;;;15.50;68.90;;;;;;5052869;28;20297;-47
2022/03/24 12:01:28;;;;;;;36.57;22.33;;;15.70;70.40;;;;;;5055720;28;20202;-45
2022/03/24 12:04:03;;;;;;;35.43;22.47;;;15.80;69.80;;;;;;5052661;28;20870;-43
2022/03/24 12:06:54;;;;;;;32.03;21.50;;;15.80;69.80;;;;;;5052370;28;20202;-43
2022/03/24 12:09:28;;;;;;;37.03;22.37;;;15.90;67.00;;;;;;5056724;28;20553;-45
2022/03/24 12:12:09;;;;;;;39.07;23.57;;;15.90;66.90;;;;;;5044422;28;20206;-42
2022/03/24 12:14:44;;;;;;;39.37;24.87;;;15.80;65.10;;;;;;5050349;28;20222;-42
2022/03/24 12:17:20;;;;;;;38.10;23.30;;;15.70;66.10;;;;;;5057992;28;20190;-42
2022/03/24 12:19:50;;;;;;;37.80;24.03;;;15.80;67.10;;;;;;5051225;28;20203;-44
2022/03/24 12:22:44;;;;;;;42.17;23.60;;;15.90;68.00;;;;;;5051262;28;20210;-48
2022/03/24 12:25:26;;;;;;;36.27;23.30;;;16.00;66.50;;;;;;5043552;28;20960;-49
2022/03/24 12:28:24;;;;;;;33.80;22.30;;;16.00;67.30;;;;;;5036208;28;21010;-49
2022/03/24 12:31:10;;;;;;;36.83;22.63;;;16.20;66.40;;;;;;5049194;28;20923;-46
2022/03/24 12:33:49;;;;;;;35.80;24.23;;;16.20;65.70;;;;;;5050997;28;20203;-51
2022/03/24 12:36:38;;;;;;;34.93;22.03;;;16.30;66.20;;;;;;5060358;28;20289;-46
2022/03/24 12:39:04;;;;;;;32.33;22.17;;;16.30;66.20;;;;;;5050840;28;20829;-48
2022/03/24 12:41:31;;;;;;;35.13;22.63;;;16.40;67.00;;;;;;5061004;28;20217;-52
2022/03/24 12:44:01;;;;;;;34.13;21.87;;;16.40;65.80;;;;;;5045387;28;20979;-50
2022/03/24 12:46:33;;;;;;;38.10;22.73;;;16.50;66.10;;;;;;5054518;28;20218;-50